createdAt,value
2022-11-14T00:00:50.032Z,90.05
2022-11-14T00:03:36.362Z,92.18
2022-11-14T00:06:22.993Z,92.14
2022-11-14T00:09:09.285Z,93.24
2022-11-14T00:11:56.265Z,92.80
2022-11-14T00:14:42.755Z,93.04
2022-11-14T00:17:29.076Z,93.83
2022-11-14T00:20:15.545Z,93.63
2022-11-14T00:23:02.160Z,88.47
2022-11-14T00:25:49.284Z,87.39
2022-11-14T00:28:35.305Z,83.67
2022-11-14T00:31:21.953Z,85.38
2022-11-14T00:34:09.205Z,84.13
2022-11-14T00:36:55.406Z,87.36
2022-11-14T00:39:42.093Z,84.61
2022-11-14T00:42:28.528Z,88.62
2022-11-14T00:45:15.574Z,88.94
2022-11-14T00:48:02.181Z,86.60
2022-11-14T00:50:48.712Z,83.64
2022-11-14T00:53:35.263Z,85.84
2022-11-14T00:56:21.783Z,84.19
2022-11-14T00:59:08.095Z,84.05
2022-11-14T01:01:57.918Z,81.21
2022-11-14T01:04:44.575Z,83.15
2022-11-14T01:07:31.052Z,82.13
2022-11-14T01:10:17.754Z,83.30
2022-11-14T01:13:04.235Z,82.07
2022-11-14T01:15:51.133Z,84.29
2022-11-14T01:18:38.146Z,81.29
2022-11-14T01:21:24.485Z,82.85
2022-11-14T01:24:10.842Z,79.74
2022-11-14T01:26:57.377Z,80.01
2022-11-14T01:29:43.854Z,81.93
2022-11-14T01:32:30.113Z,83.60
2022-11-14T01:35:16.555Z,81.91
2022-11-14T01:38:03.763Z,80.91
2022-11-14T01:40:50.394Z,83.26
2022-11-14T01:43:38.747Z,83.39
2022-11-14T01:46:38.103Z,84.64
2022-11-14T01:49:43.082Z,83.64
2022-11-14T01:52:33.804Z,82.79
2022-11-14T01:55:20.010Z,88.41
2022-11-14T01:58:06.962Z,85.27
2022-11-14T02:00:54.044Z,88.70
2022-11-14T02:03:42.013Z,88.61
2022-11-14T02:06:30.763Z,92.27
2022-11-14T02:09:17.185Z,92.90
2022-11-14T02:12:05.614Z,93.24
2022-11-14T02:14:54.414Z,91.94
2022-11-14T02:17:41.502Z,92.58
2022-11-14T02:20:31.871Z,90.85
2022-11-14T02:23:32.607Z,89.75
2022-11-14T02:26:20.420Z,89.42
2022-11-14T02:29:08.304Z,89.59
2022-11-14T02:31:54.582Z,92.05
2022-11-14T02:34:41.326Z,90.94
2022-11-14T02:37:27.833Z,91.60
2022-11-14T02:40:14.226Z,90.63
2022-11-14T02:43:00.743Z,91.77
2022-11-14T02:45:47.424Z,91.59
2022-11-14T02:48:33.765Z,92.82
2022-11-14T02:51:20.217Z,93.35
2022-11-14T02:54:06.396Z,91.84
2022-11-14T02:56:53.070Z,93.18
2022-11-14T02:59:39.404Z,95.09
2022-11-14T03:02:26.443Z,94.13
2022-11-14T03:05:12.494Z,95.39
2022-11-14T03:07:58.973Z,94.95
2022-11-14T03:10:45.435Z,96.21
2022-11-14T03:13:31.852Z,93.80
2022-11-14T03:16:18.024Z,95.48
2022-11-14T03:19:04.575Z,94.66
2022-11-14T03:21:51.222Z,94.74
2022-11-14T03:24:37.513Z,94.16
2022-11-14T03:27:23.894Z,92.53
2022-11-14T03:30:10.991Z,90.71
2022-11-14T03:32:57.735Z,93.02
2022-11-14T03:35:44.764Z,93.04
2022-11-14T03:38:31.413Z,93.75
2022-11-14T03:41:17.784Z,91.94
2022-11-14T03:44:04.367Z,92.18
2022-11-14T03:46:52.145Z,92.86
2022-11-14T03:49:38.716Z,89.20
2022-11-14T03:52:26.374Z,88.43
2022-11-14T03:55:12.984Z,91.53
2022-11-14T03:57:59.273Z,92.67
2022-11-14T04:00:45.767Z,88.90
2022-11-14T04:03:32.273Z,91.01
2022-11-14T04:06:18.633Z,92.21
2022-11-14T04:09:05.234Z,85.70
2022-11-14T04:11:51.871Z,86.42
2022-11-14T04:14:38.206Z,83.33
2022-11-14T04:17:24.783Z,81.01
2022-11-14T04:20:12.434Z,78.28
2022-11-14T04:22:58.864Z,82.86
2022-11-14T04:25:45.866Z,84.24
2022-11-14T04:28:32.626Z,86.78
2022-11-14T04:31:18.984Z,88.02
2022-11-14T04:34:05.322Z,87.89
2022-11-14T04:36:51.915Z,92.08
2022-11-14T04:39:38.107Z,92.40
2022-11-14T04:42:26.135Z,89.06
2022-11-14T04:45:12.696Z,87.34
2022-11-14T04:47:59.056Z,91.37
2022-11-14T04:50:46.663Z,90.42
2022-11-14T04:53:33.330Z,90.73
2022-11-14T04:56:23.375Z,93.73
2022-11-14T04:59:10.017Z,94.32
2022-11-14T05:01:56.577Z,87.10
2022-11-14T05:04:44.714Z,86.71
2022-11-14T05:07:31.304Z,84.40
2022-11-14T05:10:17.558Z,81.48
2022-11-14T05:13:04.226Z,82.50
2022-11-14T05:15:50.777Z,87.11
2022-11-14T05:18:40.666Z,84.85
2022-11-14T05:21:29.446Z,89.67
2022-11-14T05:24:16.065Z,91.39
2022-11-14T05:27:02.177Z,90.51
2022-11-14T05:29:48.835Z,91.38
2022-11-14T05:32:35.423Z,91.89
2022-11-14T05:35:21.474Z,93.69
2022-11-14T05:38:07.874Z,91.78
2022-11-14T05:40:56.709Z,91.53
2022-11-14T05:43:43.496Z,90.75
2022-11-14T05:46:29.837Z,92.17
2022-11-14T05:49:20.730Z,88.69
2022-11-14T05:52:08.535Z,91.30
2022-11-14T05:54:54.965Z,93.14
2022-11-14T05:57:41.213Z,91.43
2022-11-14T06:00:28.137Z,92.92
2022-11-14T06:03:17.596Z,92.87
2022-11-14T06:06:07.053Z,91.22
2022-11-14T06:08:53.533Z,91.35
2022-11-14T06:11:39.945Z,94.70
2022-11-14T06:14:26.829Z,92.91
2022-11-14T06:17:13.306Z,90.91
2022-11-14T06:19:59.974Z,91.69
2022-11-14T06:22:50.037Z,91.57
2022-11-14T06:25:36.783Z,90.68
2022-11-14T06:28:23.315Z,89.32
2022-11-14T06:31:09.765Z,89.36
2022-11-14T06:33:57.081Z,89.89
2022-11-14T06:36:43.533Z,92.24
2022-11-14T06:39:30.146Z,91.31
2022-11-14T06:42:16.896Z,90.25
2022-11-14T06:45:03.266Z,93.67
2022-11-14T06:47:49.914Z,95.40
2022-11-14T06:50:36.174Z,93.20
2022-11-14T06:53:22.786Z,94.65
2022-11-14T06:56:14.217Z,94.12
2022-11-14T06:59:01.036Z,92.56
2022-11-14T07:01:47.617Z,93.14
2022-11-14T07:04:33.974Z,88.01
2022-11-14T07:07:20.718Z,86.53
2022-11-14T07:10:07.279Z,89.63
2022-11-14T07:12:53.862Z,87.59
2022-11-14T07:15:40.578Z,86.62
2022-11-14T07:18:27.980Z,88.44
2022-11-14T07:21:14.598Z,86.38
2022-11-14T07:24:01.334Z,85.03
2022-11-14T07:26:47.645Z,81.56
2022-11-14T07:29:34.218Z,85.57
2022-11-14T07:32:20.560Z,84.65
2022-11-14T07:35:07.463Z,85.66
2022-11-14T07:37:54.112Z,81.47
2022-11-14T07:40:40.329Z,85.74
2022-11-14T07:43:26.687Z,87.30
2022-11-14T07:46:17.497Z,83.00
2022-11-14T07:49:04.115Z,84.42
2022-11-14T07:51:50.536Z,85.57
2022-11-14T07:54:36.729Z,82.53
2022-11-14T07:57:23.295Z,82.31
2022-11-14T08:00:11.071Z,81.01
2022-11-14T08:02:57.406Z,81.45
2022-11-14T08:05:43.616Z,79.78
2022-11-14T08:08:30.176Z,82.58
2022-11-14T08:11:34.355Z,80.41
2022-11-14T08:14:21.215Z,81.75
2022-11-14T08:17:07.545Z,81.15
2022-11-14T08:19:53.943Z,79.56
2022-11-14T08:22:40.214Z,76.96
2022-11-14T08:25:26.415Z,75.32
2022-11-14T08:28:13.217Z,74.68
2022-11-14T08:31:04.229Z,74.19
2022-11-14T08:33:52.477Z,73.70
2022-11-14T08:36:38.804Z,70.49
2022-11-14T08:39:25.402Z,67.27
2022-11-14T08:42:11.866Z,62.32
2022-11-14T08:44:58.220Z,60.88
2022-11-14T08:47:51.284Z,61.41
2022-11-14T08:50:37.694Z,63.71
2022-11-14T08:53:24.492Z,67.09
2022-11-14T08:56:11.488Z,66.07
2022-11-14T08:58:57.974Z,64.41
2022-11-14T09:01:44.595Z,63.80
2022-11-14T09:04:31.028Z,67.75
2022-11-14T09:07:17.620Z,66.63
2022-11-14T09:10:05.075Z,63.31
2022-11-14T09:12:56.965Z,60.87
2022-11-14T09:15:44.036Z,61.93
2022-11-14T09:18:31.055Z,61.70
2022-11-14T09:21:17.778Z,60.07
2022-11-14T09:24:04.336Z,57.95
2022-11-14T09:26:56.777Z,54.81
2022-11-14T09:29:44.043Z,52.29
2022-11-14T09:32:30.541Z,50.06
2022-11-14T09:35:17.979Z,51.00
2022-11-14T09:38:06.679Z,51.18
2022-11-14T09:41:19.834Z,50.92
2022-11-14T09:44:33.592Z,49.61
2022-11-14T09:47:25.243Z,47.14
2022-11-14T09:50:27.192Z,46.04
2022-11-14T09:53:29.656Z,44.08
2022-11-14T09:56:22.840Z,43.91
2022-11-14T09:59:11.416Z,40.75
2022-11-14T10:02:16.496Z,41.00
2022-11-14T10:05:26.506Z,40.10
2022-11-14T10:08:49.979Z,39.35
2022-11-14T10:12:00.896Z,39.91
2022-11-14T10:15:18.388Z,39.24
2022-11-14T10:18:31.158Z,38.81
2022-11-14T10:21:45.383Z,38.69
2022-11-14T10:25:04.134Z,39.34
2022-11-14T10:28:05.634Z,39.63
2022-11-14T10:30:58.845Z,40.58
2022-11-14T10:34:09.754Z,37.48
2022-11-14T10:37:23.008Z,38.27
2022-11-14T10:40:38.618Z,35.42
2022-11-14T10:43:44.782Z,36.94
2022-11-14T10:46:34.666Z,38.60
2022-11-14T10:49:23.204Z,37.46
2022-11-14T10:52:23.365Z,36.91
2022-11-14T10:55:18.264Z,40.00
2022-11-14T10:58:10.298Z,38.04
2022-11-14T11:00:56.945Z,40.10
2022-11-14T11:03:43.815Z,41.43
2022-11-14T11:06:30.063Z,41.72
2022-11-14T11:09:44.850Z,40.27
2022-11-14T11:12:38.222Z,41.77
2022-11-14T11:15:30.716Z,40.45
2022-11-14T11:18:32.480Z,42.27
2022-11-14T11:21:21.060Z,40.02
2022-11-14T11:24:09.668Z,40.74
2022-11-14T11:27:28.102Z,41.96
2022-11-14T11:30:20.385Z,42.42
2022-11-14T11:33:23.557Z,44.30
2022-11-14T11:36:18.314Z,43.42
2022-11-14T11:39:05.001Z,43.91
2022-11-14T11:42:10.727Z,44.94
2022-11-14T11:45:02.340Z,44.79
2022-11-14T11:47:59.426Z,45.65
2022-11-14T11:50:47.780Z,46.01
2022-11-14T11:53:44.548Z,46.45
2022-11-14T11:56:32.455Z,45.69
2022-11-14T11:59:34.382Z,47.77
2022-11-14T12:02:26.564Z,46.36
2022-11-14T12:05:18.501Z,48.88
2022-11-14T12:08:10.852Z,51.42
2022-11-14T12:10:58.641Z,51.29
2022-11-14T12:14:10.930Z,51.03
2022-11-14T12:17:22.827Z,50.90
2022-11-14T12:20:49.054Z,51.89
2022-11-14T12:24:03.018Z,52.50
2022-11-14T12:26:52.336Z,53.05
2022-11-14T12:30:08.531Z,53.60
2022-11-14T12:33:01.689Z,54.03
2022-11-14T12:35:52.376Z,56.17
2022-11-14T12:38:55.394Z,53.80
2022-11-14T12:41:42.200Z,53.19
2022-11-14T12:44:30.248Z,54.48
2022-11-14T12:47:25.999Z,55.59
2022-11-14T12:50:43.037Z,56.98
2022-11-14T12:53:40.246Z,54.63
2022-11-14T12:56:29.796Z,55.94
2022-11-14T12:59:39.837Z,55.80
2022-11-14T13:02:40.635Z,55.19
2022-11-14T13:05:47.138Z,56.78
2022-11-14T13:09:11.519Z,55.99
2022-11-14T13:12:17.330Z,56.73
2022-11-14T13:15:38.531Z,55.24
2022-11-14T13:18:44.805Z,56.03
2022-11-14T13:21:47.439Z,55.23
2022-11-14T13:25:03.290Z,55.71
2022-11-14T13:28:07.298Z,54.39
2022-11-14T13:31:16.904Z,53.79
2022-11-14T13:34:38.011Z,54.52
2022-11-14T13:37:24.840Z,53.80
2022-11-14T13:40:14.014Z,54.32
2022-11-14T13:43:23.754Z,54.05
2022-11-14T13:46:41.081Z,55.34
2022-11-14T13:49:54.429Z,54.84
2022-11-14T13:52:44.914Z,55.39
2022-11-14T13:55:55.892Z,54.81
2022-11-14T13:59:00.192Z,54.63
2022-11-14T14:02:19.774Z,56.05
2022-11-14T14:05:12.454Z,56.50
2022-11-14T14:07:58.734Z,56.55
2022-11-14T14:11:23.756Z,57.28
2022-11-14T14:14:35.151Z,58.93
2022-11-14T14:17:53.631Z,57.02
2022-11-14T14:20:42.644Z,57.77
2022-11-14T14:23:29.035Z,57.96
2022-11-14T14:27:13.935Z,58.93
2022-11-14T14:30:15.516Z,60.04
2022-11-14T14:33:07.928Z,60.77
2022-11-14T14:35:54.622Z,60.81
2022-11-14T14:38:41.439Z,61.21
2022-11-14T14:41:31.677Z,62.35
2022-11-14T14:44:48.850Z,65.03
2022-11-14T14:47:43.916Z,64.90
2022-11-14T14:50:41.536Z,67.47
2022-11-14T14:53:30.465Z,66.77
2022-11-14T14:56:22.445Z,66.98
2022-11-14T14:59:19.607Z,68.22
2022-11-14T15:02:14.343Z,70.22
2022-11-14T15:05:01.913Z,69.37
2022-11-14T15:07:50.262Z,69.78
2022-11-14T15:10:37.403Z,70.59
2022-11-14T15:13:23.426Z,67.81
2022-11-14T15:16:12.237Z,68.23
2022-11-14T15:18:59.208Z,69.79
2022-11-14T15:21:45.877Z,70.17
2022-11-14T15:24:32.463Z,73.01
2022-11-14T15:27:20.526Z,71.55
2022-11-14T15:30:08.545Z,72.98
2022-11-14T15:33:01.304Z,75.38
2022-11-14T15:35:47.715Z,75.40
2022-11-14T15:38:43.971Z,75.95
2022-11-14T15:41:41.220Z,76.03
2022-11-14T15:44:32.504Z,74.96
2022-11-14T15:47:29.508Z,72.28
2022-11-14T15:50:16.165Z,74.86
2022-11-14T15:53:07.435Z,75.72
2022-11-14T15:55:54.062Z,74.25
2022-11-14T15:58:43.136Z,75.69
2022-11-14T16:01:33.260Z,75.50
2022-11-14T16:04:22.157Z,75.17
2022-11-14T16:07:13.181Z,71.48
2022-11-14T16:09:59.845Z,72.06
2022-11-14T16:12:52.029Z,77.07
2022-11-14T16:15:38.754Z,77.31
2022-11-14T16:18:25.384Z,79.46
2022-11-14T16:21:15.564Z,78.24
2022-11-14T16:24:02.089Z,72.47
2022-11-14T16:26:48.907Z,74.66
2022-11-14T16:29:35.754Z,72.02
2022-11-14T16:32:23.752Z,76.27
2022-11-14T16:35:14.346Z,75.67
2022-11-14T16:38:00.824Z,76.42
2022-11-14T16:40:47.598Z,83.16
2022-11-14T16:43:33.894Z,78.50
2022-11-14T16:46:20.375Z,76.32
2022-11-14T16:49:06.946Z,78.56
2022-11-14T16:51:56.166Z,82.31
2022-11-14T16:54:42.396Z,83.00
2022-11-14T16:57:28.845Z,78.12
2022-11-14T17:00:15.286Z,73.55
2022-11-14T17:03:01.747Z,77.12
2022-11-14T17:05:53.377Z,84.10
2022-11-14T17:08:39.813Z,88.50
2022-11-14T17:11:27.413Z,89.72
2022-11-14T17:14:15.301Z,89.39
2022-11-14T17:17:01.876Z,87.07
2022-11-14T17:19:48.525Z,88.01
2022-11-14T17:22:34.946Z,87.54
2022-11-14T17:25:21.543Z,82.92
2022-11-14T17:28:08.215Z,82.46
2022-11-14T17:30:54.573Z,80.54
2022-11-14T17:33:40.924Z,79.38
2022-11-14T17:36:29.348Z,78.07
2022-11-14T17:39:15.756Z,77.00
2022-11-14T17:42:02.325Z,74.64
2022-11-14T17:44:49.125Z,72.50
2022-11-14T17:47:35.816Z,73.14
2022-11-14T17:50:22.544Z,76.96
2022-11-14T17:53:09.198Z,77.75
2022-11-14T17:55:57.528Z,78.56
2022-11-14T17:58:44.907Z,76.95
2022-11-14T18:01:31.858Z,82.60
2022-11-14T18:04:18.307Z,80.35
2022-11-14T18:07:04.572Z,82.80
2022-11-14T18:09:50.894Z,82.28
2022-11-14T18:12:37.174Z,77.95
2022-11-14T18:15:27.783Z,79.46
2022-11-14T18:18:14.527Z,78.20
2022-11-14T18:21:18.212Z,81.08
2022-11-14T18:24:04.556Z,78.01
2022-11-14T18:26:51.028Z,79.15
2022-11-14T18:29:37.403Z,75.78
2022-11-14T18:32:23.637Z,75.58
2022-11-14T18:35:10.538Z,80.92
2022-11-14T18:37:57.976Z,83.67
2022-11-14T18:40:44.431Z,80.86
2022-11-14T18:43:32.971Z,82.42
2022-11-14T18:46:22.128Z,82.54
2022-11-14T18:49:08.476Z,83.21
2022-11-14T18:51:55.967Z,81.50
2022-11-14T18:54:42.526Z,83.06
2022-11-14T18:57:29.197Z,81.10
2022-11-14T19:00:15.958Z,84.68
2022-11-14T19:03:06.072Z,83.12
2022-11-14T19:05:53.073Z,78.20
2022-11-14T19:08:40.085Z,82.56
2022-11-14T19:11:45.085Z,84.00
2022-11-14T19:14:31.553Z,81.22
2022-11-14T19:17:21.184Z,81.45
2022-11-14T19:20:13.940Z,83.25
2022-11-14T19:23:00.643Z,83.62
2022-11-14T19:25:46.824Z,83.63
2022-11-14T19:28:33.209Z,84.16
2022-11-14T19:31:20.626Z,81.61
2022-11-14T19:34:06.899Z,83.16
2022-11-14T19:36:59.783Z,80.53
2022-11-14T19:39:46.755Z,77.59
2022-11-14T19:42:33.301Z,82.12
2022-11-14T19:45:19.466Z,79.47
2022-11-14T19:48:06.004Z,83.12
2022-11-14T19:51:02.296Z,80.94
2022-11-14T19:53:49.557Z,79.83
2022-11-14T19:56:36.313Z,79.90
2022-11-14T19:59:24.608Z,81.56
2022-11-14T20:02:14.657Z,81.39
2022-11-14T20:05:01.116Z,83.91
2022-11-14T20:07:47.775Z,84.13
2022-11-14T20:10:47.856Z,82.99
2022-11-14T20:13:37.343Z,82.69
2022-11-14T20:16:28.695Z,81.50
2022-11-14T20:19:15.035Z,82.27
2022-11-14T20:22:01.572Z,82.67
2022-11-14T20:24:48.324Z,84.05
2022-11-14T20:27:35.026Z,84.36
2022-11-14T20:30:21.535Z,79.23
2022-11-14T20:33:08.567Z,76.70
2022-11-14T20:35:55.112Z,81.68
2022-11-14T20:38:42.066Z,79.41
2022-11-14T20:41:28.718Z,80.50
2022-11-14T20:44:15.495Z,82.50
2022-11-14T20:47:01.876Z,81.91
2022-11-14T20:49:48.760Z,78.49
2022-11-14T20:52:36.105Z,77.19
2022-11-14T20:55:22.195Z,81.13
2022-11-14T20:58:08.528Z,79.36
2022-11-14T21:00:55.045Z,79.40
2022-11-14T21:03:41.787Z,80.83
2022-11-14T21:06:28.054Z,82.00
2022-11-14T21:09:14.916Z,82.45
2022-11-14T21:12:01.127Z,83.57
2022-11-14T21:14:47.615Z,81.53
2022-11-14T21:17:34.027Z,81.61
2022-11-14T21:20:20.323Z,79.91
2022-11-14T21:23:06.564Z,81.21
2022-11-14T21:25:53.394Z,81.07
2022-11-14T21:28:42.075Z,83.02
2022-11-14T21:31:37.258Z,86.42
2022-11-14T21:34:23.474Z,84.23
2022-11-14T21:37:10.019Z,82.93
2022-11-14T21:39:56.605Z,83.71
2022-11-14T21:42:43.177Z,81.31
2022-11-14T21:45:29.439Z,80.60
2022-11-14T21:48:15.614Z,82.15
2022-11-14T21:51:09.165Z,86.43
2022-11-14T21:54:00.496Z,85.75
2022-11-14T21:56:46.714Z,82.33
2022-11-14T21:59:33.438Z,84.91
2022-11-14T22:02:38.664Z,81.76
2022-11-14T22:05:25.276Z,84.72
2022-11-14T22:08:11.805Z,85.78
2022-11-14T22:11:02.386Z,87.88
2022-11-14T22:13:49.351Z,86.35
2022-11-14T22:16:35.654Z,86.95
2022-11-14T22:19:21.966Z,85.27
2022-11-14T22:22:08.403Z,84.67
2022-11-14T22:24:54.515Z,86.97
2022-11-14T22:27:40.825Z,86.96
2022-11-14T22:30:27.085Z,88.11
2022-11-14T22:33:13.516Z,90.13
2022-11-14T22:36:09.925Z,87.39
2022-11-14T22:38:57.546Z,89.98
2022-11-14T22:41:43.935Z,87.83
2022-11-14T22:44:30.488Z,83.87
2022-11-14T22:47:17.164Z,84.41
2022-11-14T22:50:03.837Z,88.69
2022-11-14T22:52:50.503Z,86.50
2022-11-14T22:55:36.686Z,85.26
2022-11-14T22:58:23.703Z,86.05
2022-11-14T23:01:26.035Z,90.79
2022-11-14T23:04:12.624Z,90.93
2022-11-14T23:06:59.284Z,87.67
2022-11-14T23:09:45.668Z,89.07
2022-11-14T23:12:32.127Z,93.64
2022-11-14T23:15:18.574Z,91.76
2022-11-14T23:18:06.162Z,89.09
2022-11-14T23:20:52.718Z,90.39
2022-11-14T23:23:39.593Z,90.96
2022-11-14T23:26:26.584Z,91.07
2022-11-14T23:29:16.006Z,90.07
2022-11-14T23:32:02.554Z,90.16
2022-11-14T23:34:48.994Z,91.67
2022-11-14T23:37:35.215Z,93.08
2022-11-14T23:40:21.633Z,88.33
2022-11-14T23:43:08.236Z,88.47
2022-11-14T23:45:54.512Z,87.18
2022-11-14T23:48:40.885Z,88.52
2022-11-14T23:51:27.545Z,92.38
2022-11-14T23:54:14.235Z,92.28
2022-11-14T23:57:04.387Z,91.63
2022-11-14T23:59:51.133Z,91.58
